Time;durP1;ratioP1;P1;durP2;ratioP2;P2;SDS_P1;SDS_P2;PMS_P1;PMS_P2;Temp;Humidity;BMP_temperature;BMP_pressure;BME280_temperature;BME280_humidity;BME280_pressure;Samples;Min_cycle;Max_cycle;Signal;HPM_P1;HPM_P2
2023/05/01 00:02:05;;;;;;;6.13;5.53;;;;;;;;;;5056617;28;20752;-76
2023/05/01 00:04:33;;;;;;;5.70;5.20;;;;;;;;;;5043805;28;20381;-73
2023/05/01 00:07:02;;;;;;;6.50;5.93;;;;;;;;;;5040461;28;20212;-77
2023/05/01 00:09:31;;;;;;;9.10;7.57;;;;;;;;;;5043054;28;20251;-74
2023/05/01 00:11:58;;;;;;;8.60;7.00;;;;;;;;;;5049068;28;20335;-76
2023/05/01 00:14:25;;;;;;;6.77;6.17;;;;;;;;;;5063222;28;20261;-74
2023/05/01 00:16:53;;;;;;;5.87;5.17;;;;;;;;;;5043255;28;20216;-76
2023/05/01 00:19:20;;;;;;;5.77;5.27;;;;;;;;;;5040885;28;20198;-75
2023/05/01 00:21:50;;;;;;;6.40;5.37;;;;;;;;;;5027539;28;20218;-76
2023/05/01 00:24:17;;;;;;;6.07;5.47;;;;;;;;;;5006488;28;20352;-75
2023/05/01 00:26:45;;;;;;;5.83;5.27;;;;;;;;;;5026044;28;20292;-76
2023/05/01 00:29:12;;;;;;;7.40;5.23;;;;;;;;;;5032496;28;20293;-75
2023/05/01 00:31:41;;;;;;;5.67;5.17;;;;;;;;;;5052399;28;20226;-75
2023/05/01 00:34:10;;;;;;;5.60;5.10;;;;;;;;;;5052237;28;20660;-74
2023/05/01 00:36:37;;;;;;;5.77;5.17;;;;;;;;;;5042060;28;20217;-76
2023/05/01 00:39:07;;;;;;;5.37;4.87;;;;;;;;;;5051822;28;20854;-76
2023/05/01 00:41:35;;;;;;;5.27;4.77;;;;;;;;;;5043111;28;20238;-75
2023/05/01 00:44:02;;;;;;;6.27;5.13;;;;;;;;;;5051725;28;20259;-75
2023/05/01 00:46:31;;;;;;;5.17;4.60;;;;;;;;;;5063946;28;20197;-76
2023/05/01 00:48:59;;;;;;;5.70;5.10;;;;;;;;;;5038653;28;20213;-75
2023/05/01 00:51:28;;;;;;;5.90;5.37;;;;;;;;;;5028001;28;20222;-75
2023/05/01 00:53:56;;;;;;;5.83;5.33;;;;;;;;;;5045788;28;20212;-74
2023/05/01 00:56:25;;;;;;;5.57;5.07;;;;;;;;;;5028998;28;20693;-76
2023/05/01 00:58:53;;;;;;;6.03;5.47;;;;;;;;;;5039974;28;20202;-75
2023/05/01 01:01:20;;;;;;;5.73;5.23;;;;;;;;;;5021002;28;20243;-76
2023/05/01 01:03:50;;;;;;;5.63;5.10;;;;;;;;;;5030126;28;20217;-75
2023/05/01 01:06:17;;;;;;;5.47;5.07;;;;;;;;;;5037829;28;20202;-77
2023/05/01 01:09:00;;;;;;;5.80;5.30;;;;;;;;;;5040010;28;22476;-75
2023/05/01 01:11:36;;;;;;;5.70;5.20;;;;;;;;;;5059066;28;20326;-76
2023/05/01 01:14:08;;;;;;;5.53;5.00;;;;;;;;;;5037931;28;20356;-74
2023/05/01 01:16:57;;;;;;;5.40;4.90;;;;;;;;;;5045186;28;20229;-74
2023/05/01 01:19:27;;;;;;;5.53;5.10;;;;;;;;;;5035937;28;20671;-74
2023/05/01 01:21:58;;;;;;;5.73;5.17;;;;;;;;;;5041240;28;20296;-74
2023/05/01 01:24:25;;;;;;;5.30;4.90;;;;;;;;;;5063754;28;20297;-74
2023/05/01 01:27:02;;;;;;;5.53;5.00;;;;;;;;;;5034118;28;20300;-75
2023/05/01 01:29:29;;;;;;;4.90;4.50;;;;;;;;;;5051906;28;20312;-75
2023/05/01 01:31:57;;;;;;;5.27;4.87;;;;;;;;;;5020009;28;20241;-74
2023/05/01 01:34:42;;;;;;;6.30;4.90;;;;;;;;;;5045794;28;20292;-75
2023/05/01 01:37:22;;;;;;;5.87;5.33;;;;;;;;;;5033475;28;20222;-76
2023/05/01 01:40:09;;;;;;;4.87;4.47;;;;;;;;;;5028953;28;22184;-76
2023/05/01 01:42:41;;;;;;;5.60;5.10;;;;;;;;;;5034161;28;20379;-74
2023/05/01 01:45:11;;;;;;;5.83;5.33;;;;;;;;;;5027150;28;20220;-75
2023/05/01 01:47:40;;;;;;;5.47;4.97;;;;;;;;;;5049804;28;20248;-73
2023/05/01 01:50:09;;;;;;;5.57;5.17;;;;;;;;;;5034851;28;20590;-74
2023/05/01 01:52:38;;;;;;;4.97;4.57;;;;;;;;;;5053739;28;20222;-73
2023/05/01 01:55:08;;;;;;;6.00;5.40;;;;;;;;;;5052397;28;20221;-77
2023/05/01 01:57:38;;;;;;;6.40;5.70;;;;;;;;;;5045195;28;20334;-73
2023/05/01 02:00:09;;;;;;;7.20;4.80;;;;;;;;;;5034935;28;20233;-76
2023/05/01 02:02:38;;;;;;;5.67;5.17;;;;;;;;;;5038272;28;20201;-73
2023/05/01 02:05:07;;;;;;;6.10;5.33;;;;;;;;;;5044571;28;20338;-73
2023/05/01 02:07:35;;;;;;;6.77;5.03;;;;;;;;;;5035113;28;20460;-73
2023/05/01 02:10:04;;;;;;;5.70;4.87;;;;;;;;;;5038060;28;20244;-76
2023/05/01 02:12:33;;;;;;;5.60;5.10;;;;;;;;;;5043413;28;20236;-77
2023/05/01 02:15:00;;;;;;;6.90;5.40;;;;;;;;;;5032005;28;20301;-75
2023/05/01 02:17:28;;;;;;;7.37;5.23;;;;;;;;;;5021514;28;20213;-77
2023/05/01 02:19:57;;;;;;;5.67;5.10;;;;;;;;;;4995238;28;20226;-75
2023/05/01 02:22:25;;;;;;;5.53;5.03;;;;;;;;;;5011535;28;20306;-74
2023/05/01 02:24:53;;;;;;;6.40;5.00;;;;;;;;;;5035579;28;20220;-75
2023/05/01 02:27:23;;;;;;;5.60;5.10;;;;;;;;;;5000368;28;20363;-75
2023/05/01 02:29:52;;;;;;;5.90;5.20;;;;;;;;;;5018121;28;20390;-76
2023/05/01 02:32:20;;;;;;;8.43;5.67;;;;;;;;;;5012948;28;20291;-76
2023/05/01 02:34:48;;;;;;;5.37;4.87;;;;;;;;;;5020565;28;20802;-75
2023/05/01 02:37:15;;;;;;;5.53;5.03;;;;;;;;;;5035675;28;20282;-75
2023/05/01 02:39:43;;;;;;;5.80;5.17;;;;;;;;;;5022287;28;20225;-75
2023/05/01 02:42:11;;;;;;;5.77;5.17;;;;;;;;;;5032889;28;21272;-75
2023/05/01 02:44:40;;;;;;;7.00;5.37;;;;;;;;;;5028891;28;20232;-75
2023/05/01 02:47:08;;;;;;;5.50;5.00;;;;;;;;;;5018991;28;20205;-75
2023/05/01 02:49:37;;;;;;;5.63;5.17;;;;;;;;;;5048123;28;20261;-75
2023/05/01 02:52:05;;;;;;;5.67;5.17;;;;;;;;;;5032959;28;20226;-75
2023/05/01 02:54:32;;;;;;;5.53;5.00;;;;;;;;;;5030604;28;20230;-75
2023/05/01 02:57:01;;;;;;;5.50;5.00;;;;;;;;;;5011766;28;21015;-75
2023/05/01 02:59:28;;;;;;;5.93;5.20;;;;;;;;;;5022087;28;20201;-76
2023/05/01 03:01:56;;;;;;;5.60;5.00;;;;;;;;;;5029799;28;20913;-75
2023/05/01 03:04:23;;;;;;;5.50;5.10;;;;;;;;;;5042274;28;20930;-75
2023/05/01 03:06:51;;;;;;;5.73;5.17;;;;;;;;;;5025361;28;20210;-75
2023/05/01 03:09:18;;;;;;;5.97;5.40;;;;;;;;;;5033655;28;20578;-76
2023/05/01 03:11:46;;;;;;;5.77;5.27;;;;;;;;;;5023732;28;20205;-75
2023/05/01 03:14:13;;;;;;;5.40;5.00;;;;;;;;;;5037448;28;20233;-76
2023/05/01 03:16:40;;;;;;;6.40;5.27;;;;;;;;;;5043403;28;20296;-74
2023/05/01 03:19:08;;;;;;;6.03;5.53;;;;;;;;;;5062183;28;20275;-75
2023/05/01 03:21:35;;;;;;;5.40;4.90;;;;;;;;;;5045412;28;20230;-76
2023/05/01 03:24:03;;;;;;;6.60;5.20;;;;;;;;;;5047371;28;20249;-75
2023/05/01 03:26:31;;;;;;;6.27;5.43;;;;;;;;;;5031499;28;20343;-75
2023/05/01 03:28:59;;;;;;;6.23;5.20;;;;;;;;;;5023176;28;20229;-75
2023/05/01 03:31:26;;;;;;;6.00;5.40;;;;;;;;;;5026412;28;20849;-76
2023/05/01 03:33:53;;;;;;;6.27;5.67;;;;;;;;;;5045076;28;20230;-75
2023/05/01 03:36:21;;;;;;;7.03;5.60;;;;;;;;;;5025153;28;20216;-74
2023/05/01 03:38:49;;;;;;;6.53;5.67;;;;;;;;;;5042370;28;20201;-73
2023/05/01 03:41:16;;;;;;;6.00;5.30;;;;;;;;;;5032676;28;20320;-76
2023/05/01 03:43:43;;;;;;;6.50;5.90;;;;;;;;;;4999535;28;20251;-76
2023/05/01 03:46:11;;;;;;;6.53;5.63;;;;;;;;;;5031402;28;20593;-76
2023/05/01 03:48:38;;;;;;;6.00;5.40;;;;;;;;;;5030692;28;21791;-76
2023/05/01 03:51:05;;;;;;;6.10;5.53;;;;;;;;;;5034687;28;20756;-75
2023/05/01 03:53:33;;;;;;;6.77;5.43;;;;;;;;;;5034954;28;20372;-75
2023/05/01 03:56:00;;;;;;;6.00;5.50;;;;;;;;;;5029873;28;20210;-73
2023/05/01 03:58:28;;;;;;;6.30;5.80;;;;;;;;;;5040535;28;20229;-75
2023/05/01 04:00:57;;;;;;;5.93;5.43;;;;;;;;;;5025999;28;20247;-74
2023/05/01 04:03:24;;;;;;;6.00;5.50;;;;;;;;;;5034261;28;20217;-75
2023/05/01 04:05:52;;;;;;;6.90;6.20;;;;;;;;;;5037042;28;21169;-73
2023/05/01 04:08:19;;;;;;;6.50;5.67;;;;;;;;;;5013932;28;20202;-75
2023/05/01 04:10:46;;;;;;;6.47;5.90;;;;;;;;;;5043447;28;20312;-76
2023/05/01 04:13:14;;;;;;;6.13;5.63;;;;;;;;;;5046469;28;20226;-76
2023/05/01 04:15:45;;;;;;;6.83;6.13;;;;;;;;;;5036604;28;20217;-75
2023/05/01 04:18:13;;;;;;;6.37;5.80;;;;;;;;;;5047814;28;20695;-76
2023/05/01 04:20:40;;;;;;;6.60;6.00;;;;;;;;;;5018740;28;20237;-75
2023/05/01 04:23:08;;;;;;;6.30;5.70;;;;;;;;;;5049590;28;20841;-75
2023/05/01 04:25:36;;;;;;;7.03;6.43;;;;;;;;;;5009197;28;20711;-74
2023/05/01 04:28:04;;;;;;;7.10;6.40;;;;;;;;;;5035388;28;20665;-76
2023/05/01 04:30:31;;;;;;;6.80;6.10;;;;;;;;;;5054173;28;20221;-75
2023/05/01 04:32:58;;;;;;;7.20;6.50;;;;;;;;;;5051416;28;20261;-76
2023/05/01 04:35:26;;;;;;;7.40;6.43;;;;;;;;;;5046721;28;20212;-74
2023/05/01 04:37:53;;;;;;;7.23;6.27;;;;;;;;;;5052196;28;20727;-76
2023/05/01 04:40:20;;;;;;;6.93;6.33;;;;;;;;;;5057632;28;20225;-73
2023/05/01 04:42:48;;;;;;;7.47;6.87;;;;;;;;;;5053490;28;20288;-77
2023/05/01 04:45:15;;;;;;;6.90;6.00;;;;;;;;;;5034785;28;20276;-75
2023/05/01 04:47:42;;;;;;;6.90;6.20;;;;;;;;;;5047930;28;21127;-76
2023/05/01 04:50:10;;;;;;;6.50;5.93;;;;;;;;;;5038255;28;20226;-73
2023/05/01 04:52:38;;;;;;;6.63;6.03;;;;;;;;;;5050626;28;20726;-74
2023/05/01 04:55:05;;;;;;;7.77;5.83;;;;;;;;;;5045606;28;20259;-75
2023/05/01 04:57:32;;;;;;;6.90;6.20;;;;;;;;;;5045837;28;20285;-75
2023/05/01 05:00:00;;;;;;;7.30;6.53;;;;;;;;;;5027343;28;20225;-75
2023/05/01 05:02:27;;;;;;;9.30;6.40;;;;;;;;;;5029610;28;20872;-75
2023/05/01 05:04:58;;;;;;;6.90;6.20;;;;;;;;;;5056872;28;20714;-74
2023/05/01 05:07:25;;;;;;;6.80;6.20;;;;;;;;;;5035684;28;21007;-74
2023/05/01 05:09:52;;;;;;;8.53;6.43;;;;;;;;;;5033663;28;20249;-75
2023/05/01 05:12:20;;;;;;;6.47;5.87;;;;;;;;;;5018958;28;20359;-75
2023/05/01 05:14:47;;;;;;;7.60;6.90;;;;;;;;;;5062700;28;20251;-75
2023/05/01 05:17:14;;;;;;;7.77;7.00;;;;;;;;;;5040957;28;20205;-75
2023/05/01 05:19:42;;;;;;;7.83;7.13;;;;;;;;;;5054833;28;20229;-73
2023/05/01 05:22:11;;;;;;;7.03;6.33;;;;;;;;;;5052240;28;20264;-72
2023/05/01 05:24:38;;;;;;;8.67;7.00;;;;;;;;;;5034434;28;20251;-75
2023/05/01 05:27:06;;;;;;;7.33;6.57;;;;;;;;;;5039067;28;20280;-74
2023/05/01 05:29:33;;;;;;;6.70;6.20;;;;;;;;;;5014639;28;20216;-75
2023/05/01 05:32:01;;;;;;;9.30;8.30;;;;;;;;;;5057683;28;20217;-76
2023/05/01 05:34:28;;;;;;;11.13;9.27;;;;;;;;;;5033074;28;20307;-76
2023/05/01 05:36:56;;;;;;;7.33;6.63;;;;;;;;;;5040047;28;23821;-75
2023/05/01 05:39:23;;;;;;;7.53;6.67;;;;;;;;;;5052456;28;20197;-76
2023/05/01 05:41:52;;;;;;;6.40;5.90;;;;;;;;;;5045018;28;20607;-75
2023/05/01 05:44:19;;;;;;;7.97;7.20;;;;;;;;;;5038679;28;20349;-74
2023/05/01 05:46:47;;;;;;;11.33;10.10;;;;;;;;;;5022174;28;21283;-74
2023/05/01 05:49:14;;;;;;;12.87;10.33;;;;;;;;;;5048335;28;20305;-76
2023/05/01 05:51:41;;;;;;;10.30;7.77;;;;;;;;;;5047837;28;20229;-73
2023/05/01 05:54:08;;;;;;;11.10;8.80;;;;;;;;;;5046521;28;20727;-75
2023/05/01 05:56:36;;;;;;;11.37;8.67;;;;;;;;;;5045467;28;21196;-73
2023/05/01 05:59:05;;;;;;;11.47;10.27;;;;;;;;;;5040538;28;20289;-75
2023/05/01 06:01:32;;;;;;;10.67;9.67;;;;;;;;;;5040186;28;20249;-74
2023/05/01 06:04:00;;;;;;;9.73;8.83;;;;;;;;;;5045218;28;20214;-75
2023/05/01 06:06:27;;;;;;;8.87;7.97;;;;;;;;;;5045528;28;20206;-75
2023/05/01 06:08:54;;;;;;;7.47;6.70;;;;;;;;;;5032997;28;20337;-75
2023/05/01 06:11:22;;;;;;;7.40;6.70;;;;;;;;;;5048406;28;20673;-76
2023/05/01 06:13:49;;;;;;;8.60;7.60;;;;;;;;;;5029986;28;20222;-75
2023/05/01 06:16:16;;;;;;;7.63;6.63;;;;;;;;;;5024706;28;20201;-75
2023/05/01 06:18:44;;;;;;;7.17;6.57;;;;;;;;;;5039174;28;20201;-75
2023/05/01 06:21:12;;;;;;;7.47;6.60;;;;;;;;;;5042880;28;20233;-75
2023/05/01 06:23:39;;;;;;;6.63;6.03;;;;;;;;;;5016214;28;20209;-76
2023/05/01 06:26:07;;;;;;;7.13;6.40;;;;;;;;;;5030553;28;20226;-74
2023/05/01 06:28:34;;;;;;;6.37;5.77;;;;;;;;;;5040952;28;20310;-75
2023/05/01 06:31:01;;;;;;;6.47;5.87;;;;;;;;;;5034946;28;20861;-75
2023/05/01 06:33:29;;;;;;;7.57;6.60;;;;;;;;;;5032862;28;21008;-75
2023/05/01 06:36:00;;;;;;;6.93;6.27;;;;;;;;;;5048892;28;20198;-75
2023/05/01 06:38:27;;;;;;;7.50;6.80;;;;;;;;;;5030874;28;20210;-75
2023/05/01 06:40:55;;;;;;;6.47;5.87;;;;;;;;;;5048190;28;20308;-75
2023/05/01 06:43:26;;;;;;;7.17;6.10;;;;;;;;;;5045661;28;20688;-73
2023/05/01 06:45:54;;;;;;;7.20;6.50;;;;;;;;;;5043039;28;20213;-73
2023/05/01 06:48:21;;;;;;;8.43;7.20;;;;;;;;;;5040842;28;22555;-75
2023/05/01 06:50:48;;;;;;;7.27;6.57;;;;;;;;;;5051936;28;20225;-73
2023/05/01 06:53:16;;;;;;;7.20;6.50;;;;;;;;;;5029835;28;20296;-75
2023/05/01 06:55:43;;;;;;;7.43;6.67;;;;;;;;;;5034538;28;20209;-75
2023/05/01 06:58:10;;;;;;;7.83;6.60;;;;;;;;;;5035921;28;20226;-75
2023/05/01 07:00:50;;;;;;;7.57;6.83;;;;;;;;;;5034075;28;20221;-74
2023/05/01 07:03:18;;;;;;;7.47;6.77;;;;;;;;;;5043666;28;20241;-75
2023/05/01 07:05:45;;;;;;;6.73;6.17;;;;;;;;;;5037107;28;20213;-75
2023/05/01 07:08:13;;;;;;;7.40;6.70;;;;;;;;;;5028809;28;22738;-74
2023/05/01 07:10:40;;;;;;;7.60;6.80;;;;;;;;;;5042245;28;20240;-75
2023/05/01 07:13:08;;;;;;;7.23;6.27;;;;;;;;;;5045613;28;22718;-75
2023/05/01 07:15:36;;;;;;;7.60;6.80;;;;;;;;;;5064468;28;20645;-74
2023/05/01 07:18:06;;;;;;;8.07;7.03;;;;;;;;;;5013725;28;20217;-75
2023/05/01 07:20:34;;;;;;;7.87;7.00;;;;;;;;;;5055146;28;20251;-75
2023/05/01 07:23:02;;;;;;;8.63;6.60;;;;;;;;;;5041604;28;20300;-75
2023/05/01 07:25:32;;;;;;;7.97;6.80;;;;;;;;;;5047251;28;20216;-75
2023/05/01 07:28:03;;;;;;;8.13;6.83;;;;;;;;;;5043762;28;21700;-74
2023/05/01 07:30:31;;;;;;;6.33;5.83;;;;;;;;;;5043208;28;20256;-75
2023/05/01 07:32:59;;;;;;;7.23;6.53;;;;;;;;;;5027993;28;20611;-75
2023/05/01 07:35:27;;;;;;;7.50;6.77;;;;;;;;;;5054855;28;20216;-75
2023/05/01 07:37:55;;;;;;;9.60;8.80;;;;;;;;;;5034887;28;20285;-75
2023/05/01 07:40:22;;;;;;;7.60;6.97;;;;;;;;;;5062971;28;20218;-75
2023/05/01 07:42:50;;;;;;;7.17;6.57;;;;;;;;;;5050584;28;20330;-75
2023/05/01 07:45:20;;;;;;;8.20;7.43;;;;;;;;;;5048288;28;20330;-75
2023/05/01 07:47:48;;;;;;;8.23;7.53;;;;;;;;;;5062721;28;20206;-75
2023/05/01 07:50:16;;;;;;;8.27;7.03;;;;;;;;;;5051534;28;21360;-75
2023/05/01 07:52:44;;;;;;;9.13;8.23;;;;;;;;;;5056503;28;20672;-75
2023/05/01 07:55:11;;;;;;;6.83;6.23;;;;;;;;;;5056181;28;20319;-75
2023/05/01 07:57:39;;;;;;;8.20;7.37;;;;;;;;;;5059325;28;20202;-75
2023/05/01 08:00:07;;;;;;;7.33;5.90;;;;;;;;;;5059615;28;20221;-75
2023/05/01 08:02:34;;;;;;;6.17;5.57;;;;;;;;;;5056184;28;20206;-75
2023/05/01 08:05:02;;;;;;;6.77;6.17;;;;;;;;;;5052887;28;20301;-74
2023/05/01 08:07:32;;;;;;;7.60;6.90;;;;;;;;;;5060921;28;20205;-76
2023/05/01 08:10:00;;;;;;;7.13;6.53;;;;;;;;;;5037522;28;20766;-76
2023/05/01 08:12:30;;;;;;;6.37;5.87;;;;;;;;;;5035661;28;20564;-76
2023/05/01 08:14:57;;;;;;;7.33;6.23;;;;;;;;;;5034445;28;20320;-75
2023/05/01 08:17:24;;;;;;;7.17;6.47;;;;;;;;;;5017470;28;20234;-74
2023/05/01 08:19:55;;;;;;;8.20;7.40;;;;;;;;;;5027595;28;20740;-74
2023/05/01 08:22:23;;;;;;;7.73;6.63;;;;;;;;;;5007886;28;20273;-75
2023/05/01 08:24:50;;;;;;;6.57;5.83;;;;;;;;;;5027829;28;20287;-75
2023/05/01 08:27:18;;;;;;;6.80;6.20;;;;;;;;;;5003256;28;20205;-75
2023/05/01 08:29:45;;;;;;;7.10;5.90;;;;;;;;;;5013193;28;20270;-75
2023/05/01 08:32:14;;;;;;;7.00;6.30;;;;;;;;;;5023966;28;20205;-74
2023/05/01 08:34:41;;;;;;;6.53;6.03;;;;;;;;;;5027906;28;20304;-74
2023/05/01 08:37:08;;;;;;;6.77;6.17;;;;;;;;;;5021426;28;20321;-76
2023/05/01 08:39:36;;;;;;;7.30;6.67;;;;;;;;;;5030792;28;20205;-73
2023/05/01 08:42:04;;;;;;;6.57;6.03;;;;;;;;;;5022360;28;20202;-76
2023/05/01 08:44:32;;;;;;;7.00;6.07;;;;;;;;;;5033326;28;20210;-74
2023/05/01 08:47:15;;;;;;;6.65;6.05;;;;;;;;;;5017421;28;20249;-76
2023/05/01 08:49:43;;;;;;;7.13;6.37;;;;;;;;;;5001820;28;20592;-75
2023/05/01 08:52:12;;;;;;;6.53;5.93;;;;;;;;;;5029137;28;20575;-76
2023/05/01 08:54:44;;;;;;;6.80;6.20;;;;;;;;;;5033201;28;20293;-73
2023/05/01 08:57:11;;;;;;;6.07;5.55;;;;;;;;;;5009969;28;22318;-74
2023/05/01 08:59:39;;;;;;;5.97;5.38;;;;;;;;;;5025180;28;20699;-73
2023/05/01 09:02:10;;;;;;;6.13;5.50;;;;;;;;;;5029715;28;20775;-77
2023/05/01 09:04:38;;;;;;;5.95;5.40;;;;;;;;;;5035348;28;20430;-76
2023/05/01 09:07:05;;;;;;;6.30;5.70;;;;;;;;;;5036547;28;20258;-75
2023/05/01 09:09:33;;;;;;;5.38;4.93;;;;;;;;;;5033615;28;20784;-73
2023/05/01 09:12:17;;;;;;;6.68;4.80;;;;;;;;;;5030256;28;20245;-74
2023/05/01 09:14:45;;;;;;;6.85;5.60;;;;;;;;;;5017917;28;20320;-75
2023/05/01 09:17:13;;;;;;;5.40;4.90;;;;;;;;;;5034741;28;20842;-76
2023/05/01 09:19:40;;;;;;;5.93;5.30;;;;;;;;;;5027500;28;20906;-76
2023/05/01 09:22:09;;;;;;;7.53;5.70;;;;;;;;;;5040634;28;20209;-76
2023/05/01 09:24:36;;;;;;;6.20;5.00;;;;;;;;;;5043018;28;20302;-75
2023/05/01 09:27:05;;;;;;;5.90;5.40;;;;;;;;;;5028191;28;20208;-74
2023/05/01 09:33:05;;;;;;;5.25;4.75;;;;;;;;;;5016085;28;20216;-74
2023/05/01 09:35:48;;;;;;;7.10;4.78;;;;;;;;;;5054808;28;20221;-75
2023/05/01 09:38:19;;;;;;;4.88;4.47;;;;;;;;;;5048168;28;20647;-75
2023/05/01 09:40:46;;;;;;;5.38;4.88;;;;;;;;;;5066370;28;20753;-75
2023/05/01 09:43:16;;;;;;;5.13;4.72;;;;;;;;;;5064504;28;20284;-74
2023/05/01 09:45:58;;;;;;;5.10;4.70;;;;;;;;;;5027536;28;20220;-74
2023/05/01 09:48:29;;;;;;;5.50;5.00;;;;;;;;;;5033092;28;20517;-75
2023/05/01 09:51:01;;;;;;;4.97;4.47;;;;;;;;;;5026913;28;20585;-76
2023/05/01 09:53:38;;;;;;;4.40;4.10;;;;;;;;;;5035716;28;20202;-74
2023/05/01 09:56:06;;;;;;;4.75;4.20;;;;;;;;;;5024940;28;20210;-74
2023/05/01 09:58:34;;;;;;;4.60;4.20;;;;;;;;;;5039435;28;20202;-75
2023/05/01 10:01:01;;;;;;;4.93;4.53;;;;;;;;;;5022955;28;21432;-75
2023/05/01 10:03:31;;;;;;;4.95;4.50;;;;;;;;;;5038549;28;20659;-75
2023/05/01 10:06:01;;;;;;;5.32;4.82;;;;;;;;;;5028411;28;20259;-75
2023/05/01 10:08:48;;;;;;;5.00;4.60;;;;;;;;;;5038576;28;20206;-75
2023/05/01 10:11:15;;;;;;;4.80;4.40;;;;;;;;;;5033231;28;20222;-75
2023/05/01 10:13:43;;;;;;;5.25;4.78;;;;;;;;;;5037845;28;20202;-75
2023/05/01 10:16:28;;;;;;;5.00;4.60;;;;;;;;;;5020090;28;20271;-75
2023/05/01 10:18:57;;;;;;;6.10;4.78;;;;;;;;;;5004044;28;20678;-75
2023/05/01 10:21:24;;;;;;;4.50;4.10;;;;;;;;;;5036435;28;20316;-75
2023/05/01 10:23:52;;;;;;;5.32;3.83;;;;;;;;;;5024874;28;20202;-75
2023/05/01 10:26:19;;;;;;;4.35;4.05;;;;;;;;;;5024464;28;20293;-73
2023/05/01 10:28:48;;;;;;;4.30;4.00;;;;;;;;;;5040020;28;20205;-73
2023/05/01 10:31:16;;;;;;;4.20;3.90;;;;;;;;;;5029594;28;20221;-76
2023/05/01 10:33:44;;;;;;;4.35;4.05;;;;;;;;;;5039010;28;20200;-74
2023/05/01 10:36:21;;;;;;;4.30;4.00;;;;;;;;;;5027076;28;20294;-75
2023/05/01 10:38:48;;;;;;;4.55;4.10;;;;;;;;;;5033189;28;20259;-74
2023/05/01 10:41:16;;;;;;;4.72;4.30;;;;;;;;;;5033443;28;20686;-74
2023/05/01 10:43:43;;;;;;;4.20;3.80;;;;;;;;;;5017392;28;20221;-74
2023/05/01 10:46:20;;;;;;;4.30;3.90;;;;;;;;;;5025343;28;20314;-75
2023/05/01 10:48:51;;;;;;;3.92;3.63;;;;;;;;;;5015332;28;20212;-75
2023/05/01 10:51:22;;;;;;;6.00;4.18;;;;;;;;;;5036709;28;20247;-75
2023/05/01 10:54:29;;;;;;;3.90;3.60;;;;;;;;;;5016661;28;20560;-75
2023/05/01 10:57:00;;;;;;;3.72;3.42;;;;;;;;;;4983368;28;20214;-75
2023/05/01 10:59:48;;;;;;;3.63;3.33;;;;;;;;;;5017371;28;20280;-75
2023/05/01 11:02:22;;;;;;;2.92;2.72;;;;;;;;;;5025714;28;20269;-74
2023/05/01 11:04:52;;;;;;;4.22;3.15;;;;;;;;;;5021805;28;20629;-74
2023/05/01 11:07:21;;;;;;;3.60;3.30;;;;;;;;;;5016978;28;20289;-74
2023/05/01 11:09:54;;;;;;;8.85;6.85;;;;;;;;;;5018951;28;20226;-74
2023/05/01 11:12:40;;;;;;;4.15;3.75;;;;;;;;;;5028935;28;20267;-75
2023/05/01 11:15:09;;;;;;;3.42;3.22;;;;;;;;;;5024040;28;20312;-75
2023/05/01 11:17:42;;;;;;;3.15;2.95;;;;;;;;;;5026209;28;20224;-75
2023/05/01 11:20:10;;;;;;;3.33;3.13;;;;;;;;;;5042689;28;20238;-75
2023/05/01 11:22:39;;;;;;;3.85;3.20;;;;;;;;;;5032032;28;20211;-75
2023/05/01 11:25:20;;;;;;;3.15;2.95;;;;;;;;;;5034039;28;20760;-75
2023/05/01 11:27:48;;;;;;;3.50;3.10;;;;;;;;;;5042048;28;20276;-75
2023/05/01 11:30:16;;;;;;;3.03;2.78;;;;;;;;;;5030650;28;20712;-73
2023/05/01 11:32:44;;;;;;;3.67;3.38;;;;;;;;;;5019314;28;20210;-74
2023/05/01 11:35:22;;;;;;;3.00;2.80;;;;;;;;;;5029526;28;20240;-75
2023/05/01 11:37:50;;;;;;;3.17;2.97;;;;;;;;;;5049436;28;20695;-75
2023/05/01 11:40:26;;;;;;;3.50;3.30;;;;;;;;;;5020735;28;20717;-76
2023/05/01 11:43:01;;;;;;;4.05;3.58;;;;;;;;;;5040145;28;20605;-75
2023/05/01 11:45:29;;;;;;;3.67;3.40;;;;;;;;;;5038895;28;20206;-75
2023/05/01 11:47:57;;;;;;;3.60;3.30;;;;;;;;;;5013486;28;20242;-75
2023/05/01 11:50:38;;;;;;;3.80;3.50;;;;;;;;;;5025967;28;20590;-75
2023/05/01 11:53:14;;;;;;;3.95;3.65;;;;;;;;;;5041700;28;20218;-75
2023/05/01 11:55:43;;;;;;;4.75;3.92;;;;;;;;;;5021665;28;20221;-75
2023/05/01 11:58:11;;;;;;;4.47;3.95;;;;;;;;;;5041186;28;20642;-75
2023/05/01 12:00:42;;;;;;;5.20;4.35;;;;;;;;;;5042986;28;20261;-75
2023/05/01 12:03:11;;;;;;;4.15;3.85;;;;;;;;;;5028973;28;20201;-74
2023/05/01 12:05:41;;;;;;;5.30;4.15;;;;;;;;;;5035068;28;20216;-75
2023/05/01 12:08:17;;;;;;;4.22;3.92;;;;;;;;;;5029156;28;22418;-74
2023/05/01 12:10:46;;;;;;;3.83;3.53;;;;;;;;;;5024523;28;20225;-75
2023/05/01 12:13:13;;;;;;;4.63;3.60;;;;;;;;;;5037271;28;20247;-74
2023/05/01 12:15:45;;;;;;;4.10;3.80;;;;;;;;;;5028618;28;20230;-74
2023/05/01 12:18:14;;;;;;;3.40;3.10;;;;;;;;;;5009661;28;20288;-75
2023/05/01 12:20:43;;;;;;;3.50;3.30;;;;;;;;;;5020095;28;20241;-75
2023/05/01 12:23:13;;;;;;;3.65;3.40;;;;;;;;;;5027766;28;20210;-75
2023/05/01 12:25:41;;;;;;;6.82;4.72;;;;;;;;;;5026535;28;20234;-75
2023/05/01 12:28:10;;;;;;;3.95;3.65;;;;;;;;;;5031283;28;20271;-75
2023/05/01 12:30:38;;;;;;;4.38;4.07;;;;;;;;;;5033598;28;20692;-75
2023/05/01 12:33:13;;;;;;;3.83;3.42;;;;;;;;;;5021062;28;20594;-74
2023/05/01 12:35:41;;;;;;;4.18;3.33;;;;;;;;;;5037388;28;20571;-74
2023/05/01 12:38:21;;;;;;;4.78;3.45;;;;;;;;;;5016515;28;20662;-75
2023/05/01 12:40:53;;;;;;;3.50;3.17;;;;;;;;;;5003104;28;21694;-75
2023/05/01 12:43:29;;;;;;;3.70;3.40;;;;;;;;;;5026379;28;20201;-75
2023/05/01 12:45:56;;;;;;;3.58;3.28;;;;;;;;;;5019506;28;20643;-76
2023/05/01 12:48:24;;;;;;;3.67;3.38;;;;;;;;;;5013074;28;20232;-74
2023/05/01 12:50:55;;;;;;;3.10;2.90;;;;;;;;;;5023964;28;20329;-76
2023/05/01 12:53:23;;;;;;;3.15;2.85;;;;;;;;;;4990138;28;20347;-74
2023/05/01 12:55:51;;;;;;;4.05;3.00;;;;;;;;;;5018476;28;20344;-76
2023/05/01 12:58:19;;;;;;;3.35;3.05;;;;;;;;;;5011567;28;20304;-75
2023/05/01 13:00:46;;;;;;;3.40;3.05;;;;;;;;;;5002691;28;20335;-74
2023/05/01 13:03:16;;;;;;;10.85;7.88;;;;;;;;;;5012270;28;20311;-75
2023/05/01 13:05:59;;;;;;;8.65;5.70;;;;;;;;;;5020790;28;20201;-75
2023/05/01 13:08:30;;;;;;;5.60;4.47;;;;;;;;;;5008521;28;20736;-75
2023/05/01 13:11:08;;;;;;;3.67;3.13;;;;;;;;;;5021474;28;20686;-76
2023/05/01 13:13:36;;;;;;;3.08;2.88;;;;;;;;;;5034233;28;20240;-76
2023/05/01 13:16:25;;;;;;;3.10;2.90;;;;;;;;;;5002089;28;20235;-75
2023/05/01 13:18:52;;;;;;;3.50;3.28;;;;;;;;;;5017463;28;20259;-75
2023/05/01 13:21:23;;;;;;;3.33;3.05;;;;;;;;;;5010254;28;20236;-75
2023/05/01 13:23:54;;;;;;;3.30;3.10;;;;;;;;;;5008024;28;20517;-75
2023/05/01 13:26:34;;;;;;;3.42;3.20;;;;;;;;;;5020447;28;20213;-74
2023/05/01 13:29:02;;;;;;;3.30;3.10;;;;;;;;;;5038261;28;20205;-74
2023/05/01 13:31:31;;;;;;;3.17;2.97;;;;;;;;;;5022421;28;20293;-74
2023/05/01 13:34:02;;;;;;;3.13;2.92;;;;;;;;;;5024914;28;20202;-75
2023/05/01 13:36:32;;;;;;;2.90;2.70;;;;;;;;;;5030940;28;20666;-74
2023/05/01 13:39:02;;;;;;;3.15;2.85;;;;;;;;;;5024018;28;20655;-75
2023/05/01 13:41:30;;;;;;;3.00;2.70;;;;;;;;;;5022496;28;20225;-74
2023/05/01 13:43:57;;;;;;;3.50;2.97;;;;;;;;;;5019078;28;20271;-74
2023/05/01 13:46:26;;;;;;;3.00;2.80;;;;;;;;;;5013897;28;20156;-74
2023/05/01 13:48:55;;;;;;;2.88;2.67;;;;;;;;;;5042759;28;21602;-74
2023/05/01 13:51:23;;;;;;;4.30;2.63;;;;;;;;;;5014800;28;20522;-75
2023/05/01 13:53:55;;;;;;;2.38;2.20;;;;;;;;;;5020223;28;20216;-75
2023/05/01 13:56:22;;;;;;;2.60;2.40;;;;;;;;;;5008111;28;20706;-75
2023/05/01 13:58:50;;;;;;;2.38;2.28;;;;;;;;;;4990692;28;21226;-73
2023/05/01 14:01:19;;;;;;;2.60;2.50;;;;;;;;;;5013865;28;20695;-75
2023/05/01 14:03:47;;;;;;;2.42;2.28;;;;;;;;;;5008591;28;20212;-75
2023/05/01 14:06:16;;;;;;;2.55;2.42;;;;;;;;;;5027866;28;20243;-75
2023/05/01 14:08:45;;;;;;;3.28;2.38;;;;;;;;;;5055036;28;20206;-75
2023/05/01 14:11:12;;;;;;;2.30;2.10;;;;;;;;;;5040155;28;20638;-75
2023/05/01 14:13:40;;;;;;;3.95;2.28;;;;;;;;;;5038081;28;20644;-75
2023/05/01 14:16:11;;;;;;;2.78;1.92;;;;;;;;;;5039802;28;20257;-74
2023/05/01 14:18:46;;;;;;;2.22;2.10;;;;;;;;;;5020278;28;20256;-75
2023/05/01 14:21:17;;;;;;;2.38;2.28;;;;;;;;;;5045152;28;20690;-75
2023/05/01 14:23:44;;;;;;;2.40;1.90;;;;;;;;;;5041484;28;20597;-75
2023/05/01 14:26:17;;;;;;;2.20;2.00;;;;;;;;;;5039192;28;20205;-76
2023/05/01 14:28:45;;;;;;;2.03;1.90;;;;;;;;;;5039103;28;20208;-76
2023/05/01 14:31:16;;;;;;;2.70;2.50;;;;;;;;;;5030054;28;20229;-75
2023/05/01 14:33:43;;;;;;;3.17;2.35;;;;;;;;;;5038117;28;20694;-75
2023/05/01 14:36:13;;;;;;;2.10;2.00;;;;;;;;;;5034549;28;20320;-75
2023/05/01 14:38:45;;;;;;;2.53;2.30;;;;;;;;;;5022243;28;20301;-73
2023/05/01 14:41:13;;;;;;;2.78;2.13;;;;;;;;;;5043910;28;20721;-75
2023/05/01 14:43:42;;;;;;;2.35;2.20;;;;;;;;;;5048092;28;20296;-75
2023/05/01 14:46:12;;;;;;;2.30;2.20;;;;;;;;;;5039104;28;20389;-75
2023/05/01 14:48:40;;;;;;;4.22;2.20;;;;;;;;;;5039343;28;20205;-75
2023/05/01 14:51:11;;;;;;;2.50;2.30;;;;;;;;;;5040411;28;20351;-75
2023/05/01 14:53:42;;;;;;;2.57;2.37;;;;;;;;;;5043412;28;20201;-75
2023/05/01 14:56:10;;;;;;;2.67;2.47;;;;;;;;;;5033067;28;20308;-75
2023/05/01 14:58:37;;;;;;;2.67;2.47;;;;;;;;;;5047049;28;20288;-75
2023/05/01 15:01:04;;;;;;;7.70;5.83;;;;;;;;;;5039180;28;20228;-75